createdAt,value
2022-11-05T00:08:05.268Z,8.72
2022-11-05T00:23:47.584Z,8.68
2022-11-05T00:39:29.740Z,8.68
2022-11-05T00:55:12.369Z,8.67
2022-11-05T01:10:55.409Z,8.63
2022-11-05T01:26:37.780Z,8.62
2022-11-05T01:42:19.892Z,8.57
2022-11-05T01:58:02.270Z,8.59
2022-11-05T02:13:44.940Z,8.56
2022-11-05T02:29:27.039Z,8.45
2022-11-05T02:45:09.910Z,8.38
2022-11-05T03:00:52.508Z,8.31
2022-11-05T03:16:35.539Z,8.14
2022-11-05T03:32:18.023Z,8.05
2022-11-05T03:48:00.423Z,7.86
2022-11-05T04:03:42.647Z,7.75
2022-11-05T04:19:24.763Z,7.67
2022-11-05T04:35:07.583Z,7.53
2022-11-05T04:50:50.178Z,7.45
2022-11-05T05:06:32.449Z,7.31
2022-11-05T05:22:15.083Z,7.15
2022-11-05T05:37:57.504Z,7.11
2022-11-05T05:53:39.927Z,7.05
2022-11-05T06:09:22.875Z,6.99
2022-11-05T06:25:05.396Z,6.91
2022-11-05T06:40:48.033Z,6.86
2022-11-05T06:56:30.798Z,6.82
2022-11-05T07:12:13.502Z,6.81
2022-11-05T07:27:56.156Z,6.86
2022-11-05T07:43:38.910Z,6.94
2022-11-05T07:59:21.078Z,7.24
2022-11-05T08:15:03.475Z,7.66
2022-11-05T08:30:45.905Z,8.08
2022-11-05T08:46:28.262Z,8.18
2022-11-05T09:02:11.279Z,8.21
2022-11-05T09:17:53.512Z,9.1
2022-11-05T09:33:36.259Z,9.53
2022-11-05T09:49:19.242Z,10.51
2022-11-05T10:05:01.411Z,11.03
2022-11-05T10:20:43.707Z,12.43
2022-11-05T10:36:26.025Z,13.61
2022-11-05T10:52:08.426Z,13.25
2022-11-05T11:07:51.325Z,13.68
2022-11-05T11:23:33.975Z,14.52
2022-11-05T11:39:16.727Z,14.63
2022-11-05T11:54:59.574Z,13.23
2022-11-05T12:10:42.247Z,12.91
2022-11-05T12:26:24.366Z,12.71
2022-11-05T12:42:06.735Z,14.1
2022-11-05T12:57:49.112Z,16.17
2022-11-05T13:13:31.894Z,16.99
2022-11-05T13:29:14.666Z,17.69
2022-11-05T13:44:57.565Z,18.18
2022-11-05T14:00:40.399Z,16.89
2022-11-05T14:16:22.861Z,14.09
2022-11-05T14:32:05.638Z,12.56
2022-11-05T14:32:52.988Z,12.69
2022-11-05T14:48:35.179Z,11.73
2022-11-05T15:04:18.108Z,11.15
2022-11-05T15:20:00.321Z,10.6
2022-11-05T15:35:43.272Z,10.03
2022-11-05T15:51:25.733Z,9.33
2022-11-05T16:07:08.651Z,8.68
2022-11-05T16:22:51.441Z,8.28
2022-11-05T16:38:34.033Z,7.85
2022-11-05T16:54:16.231Z,7.52
2022-11-05T17:09:58.506Z,7.24
2022-11-05T17:25:40.882Z,6.94
2022-11-05T17:41:23.238Z,6.96
2022-11-05T17:57:05.713Z,6.88
2022-11-05T18:12:48.514Z,6.73
2022-11-05T18:28:31.044Z,6.65
2022-11-05T18:44:13.917Z,6.41
2022-11-05T18:59:56.641Z,6.1
2022-11-05T19:15:39.387Z,5.87
2022-11-05T19:31:22.247Z,5.76
2022-11-05T19:47:04.832Z,5.59
2022-11-05T20:02:47.363Z,5.26
2022-11-05T20:18:30.471Z,5.03
2022-11-05T20:34:13.078Z,4.64
2022-11-05T20:49:56.123Z,4.3
2022-11-05T21:05:38.653Z,4.11
2022-11-05T21:21:21.103Z,3.97
2022-11-05T21:37:04.270Z,3.91
2022-11-05T21:52:46.879Z,3.79
2022-11-05T22:08:29.112Z,3.67
2022-11-05T22:24:11.642Z,3.58
2022-11-05T22:39:54.381Z,3.51
2022-11-05T22:55:36.681Z,3.4
2022-11-05T23:11:19.113Z,3.33
2022-11-05T23:27:02.204Z,3.65
2022-11-05T23:42:44.317Z,3.99
2022-11-05T23:58:27.223Z,4.19
